Overview Statistics Trail Chart Weather Telemetry Raw packets
 

This is the latest recevied weather packets stored in our database for station/object SP9WJ-3. If no packets are shown the sender has not sent any weather packets the latest 10 day(s).

<< 4 5 6 7 8 9 >>
Time Temp. Humidity Pressure Rain* Wind** Luminosity Snow
1788047220 20.56° C 62% 982.8 hPa - - - -
1788043545 20.56° C 61% 982.6 hPa - - - -
1788041708 20.56° C 60% 982.6 hPa - - - -
1788040789 20.56° C 59% 982.7 hPa - - - -
1788039871 21.11° C 60% 982.6 hPa - - - -
1788038952 21.11° C 60% 982.6 hPa - - - -
1788038033 21.11° C 61% 982.7 hPa - - - -
1788037114 21.11° C 60% 982.7 hPa - - - -
1788035276 21.67° C 55% 982.7 hPa - - - -
1788034357 21.67° C 55% 982.7 hPa - - - -
1788033438 21.67° C 56% 982.5 hPa - - - -
1788032611 22.22° C 57% 982.6 hPa - - - -
1788032559 22.22° C 57% 982.6 hPa - - - -
1788032519 22.22° C 57% 982.6 hPa - - - -
1788031600 22.22° C 52% 982.5 hPa - - - -
1788031305 22.78° C 51% 982.4 hPa - - - -
1788030681 22.78° C 51% 982.4 hPa - - - -
1788029761 22.78° C 49% 982.3 hPa - - - -
1788028842 23.33° C 48% 982.1 hPa - - - -
1788027928 23.33° C 47% 982 hPa - - - -
1788026084 24.44° C 42% 981.7 hPa - - - -
1788025164 25° C 40% 981.6 hPa - - - -
1788020559 31.67° C 25% 981.3 hPa - - - -
1788018746 32.78° C 22% 981.4 hPa - - - -
1788018715 32.78° C 22% 981.4 hPa - - - -

* Rain since midnight (hover to see other rain measurements)
** Current wind speed in m/s (hover to see current wind gust speed)